sensor_id;sensor_type;location;lat;lon;timestamp;pressure;altitude;pressure_sealevel;temperature;humidity
58534;BME280;44109;52.398;7.024;2023-02-18T00:01:37;101863.91;;;9.73;100.00
58534;BME280;44109;52.398;7.024;2023-02-18T00:04:05;101865.16;;;9.75;100.00
58534;BME280;44109;52.398;7.024;2023-02-18T00:06:34;101867.69;;;9.68;100.00
58534;BME280;44109;52.398;7.024;2023-02-18T00:09:04;101829.34;;;9.49;100.00
58534;BME280;44109;52.398;7.024;2023-02-18T00:11:36;101866.44;;;9.57;100.00
58534;BME280;44109;52.398;7.024;2023-02-18T00:14:06;101862.81;;;9.65;100.00
58534;BME280;44109;52.398;7.024;2023-02-18T00:16:37;101856.81;;;9.63;100.00
58534;BME280;44109;52.398;7.024;2023-02-18T00:19:06;101855.78;;;9.47;100.00
58534;BME280;44109;52.398;7.024;2023-02-18T00:21:36;101864.38;;;9.54;100.00
58534;BME280;44109;52.398;7.024;2023-02-18T00:24:05;101849.06;;;9.48;100.00
58534;BME280;44109;52.398;7.024;2023-02-18T00:26:35;101852.13;;;9.55;100.00
58534;BME280;44109;52.398;7.024;2023-02-18T00:29:03;101842.38;;;9.49;100.00
58534;BME280;44109;52.398;7.024;2023-02-18T00:31:32;101845.47;;;9.26;100.00
58534;BME280;44109;52.398;7.024;2023-02-18T00:34:03;101853.25;;;9.33;100.00
58534;BME280;44109;52.398;7.024;2023-02-18T00:36:32;101846.50;;;9.43;100.00
58534;BME280;44109;52.398;7.024;2023-02-18T00:39:01;101841.97;;;9.38;100.00
58534;BME280;44109;52.398;7.024;2023-02-18T00:41:32;101837.41;;;9.63;100.00
58534;BME280;44109;52.398;7.024;2023-02-18T00:44:02;101839.84;;;9.64;100.00
58534;BME280;44109;52.398;7.024;2023-02-18T00:46:30;101841.16;;;9.79;100.00
58534;BME280;44109;52.398;7.024;2023-02-18T00:48:57;101838.88;;;9.81;100.00
58534;BME280;44109;52.398;7.024;2023-02-18T00:51:25;101831.97;;;9.87;100.00
58534;BME280;44109;52.398;7.024;2023-02-18T00:53:53;101834.53;;;9.93;100.00
58534;BME280;44109;52.398;7.024;2023-02-18T00:56:21;101821.69;;;9.88;100.00
58534;BME280;44109;52.398;7.024;2023-02-18T00:58:49;101820.88;;;10.08;100.00
58534;BME280;44109;52.398;7.024;2023-02-18T01:01:19;101818.28;;;10.03;100.00
58534;BME280;44109;52.398;7.024;2023-02-18T01:06:15;101825.16;;;10.18;100.00
58534;BME280;44109;52.398;7.024;2023-02-18T01:08:42;101807.63;;;10.26;100.00
58534;BME280;44109;52.398;7.024;2023-02-18T01:11:11;101795.31;;;10.03;100.00
58534;BME280;44109;52.398;7.024;2023-02-18T01:13:40;101816.13;;;10.09;100.00
58534;BME280;44109;52.398;7.024;2023-02-18T01:16:08;101817.47;;;10.03;100.00
58534;BME280;44109;52.398;7.024;2023-02-18T01:18:39;101817.38;;;10.11;100.00
58534;BME280;44109;52.398;7.024;2023-02-18T01:21:07;101794.19;;;10.16;100.00
58534;BME280;44109;52.398;7.024;2023-02-18T01:23:36;101790.38;;;10.21;100.00
58534;BME280;44109;52.398;7.024;2023-02-18T01:26:04;101781.44;;;10.36;100.00
58534;BME280;44109;52.398;7.024;2023-02-18T01:28:32;101783.91;;;10.16;100.00
58534;BME280;44109;52.398;7.024;2023-02-18T01:31:04;101779.44;;;10.24;100.00
58534;BME280;44109;52.398;7.024;2023-02-18T01:33:33;101775.25;;;10.18;100.00
58534;BME280;44109;52.398;7.024;2023-02-18T01:36:02;101777.00;;;10.23;100.00
58534;BME280;44109;52.398;7.024;2023-02-18T01:38:31;101772.72;;;10.13;100.00
58534;BME280;44109;52.398;7.024;2023-02-18T01:40:58;101775.25;;;10.18;100.00
58534;BME280;44109;52.398;7.024;2023-02-18T01:43:26;101777.13;;;10.26;100.00
58534;BME280;44109;52.398;7.024;2023-02-18T01:46:04;101745.84;;;9.93;100.00
58534;BME280;44109;52.398;7.024;2023-02-18T01:48:38;101758.53;;;9.94;100.00
58534;BME280;44109;52.398;7.024;2023-02-18T01:51:12;101745.66;;;10.10;100.00
58534;BME280;44109;52.398;7.024;2023-02-18T01:53:47;101756.06;;;10.13;100.00
58534;BME280;44109;52.398;7.024;2023-02-18T01:56:24;101750.53;;;10.13;100.00
58534;BME280;44109;52.398;7.024;2023-02-18T01:58:58;101745.19;;;9.96;100.00
58534;BME280;44109;52.398;7.024;2023-02-18T02:01:30;101738.72;;;10.16;100.00
58534;BME280;44109;52.398;7.024;2023-02-18T02:03:59;101745.41;;;10.03;100.00
58534;BME280;44109;52.398;7.024;2023-02-18T02:06:29;101727.41;;;10.09;100.00
58534;BME280;44109;52.398;7.024;2023-02-18T02:08:59;101727.19;;;10.14;100.00
58534;BME280;44109;52.398;7.024;2023-02-18T02:11:54;101720.13;;;10.04;100.00
58534;BME280;44109;52.398;7.024;2023-02-18T02:14:42;101724.38;;;10.02;100.00
58534;BME280;44109;52.398;7.024;2023-02-18T02:17:28;101726.00;;;10.03;100.00
58534;BME280;44109;52.398;7.024;2023-02-18T02:20:27;101694.09;;;9.84;100.00
58534;BME280;44109;52.398;7.024;2023-02-18T02:23:47;101715.13;;;9.98;100.00
58534;BME280;44109;52.398;7.024;2023-02-18T02:26:55;101699.66;;;9.97;100.00
58534;BME280;44109;52.398;7.024;2023-02-18T02:30:01;101717.72;;;10.15;100.00
58534;BME280;44109;52.398;7.024;2023-02-18T02:33:11;101719.31;;;10.16;100.00
58534;BME280;44109;52.398;7.024;2023-02-18T02:35:59;101715.22;;;10.34;100.00
58534;BME280;44109;52.398;7.024;2023-02-18T02:38:37;101713.34;;;10.26;100.00
58534;BME280;44109;52.398;7.024;2023-02-18T02:41:21;101693.56;;;10.15;100.00
58534;BME280;44109;52.398;7.024;2023-02-18T02:44:18;101682.84;;;10.26;100.00
58534;BME280;44109;52.398;7.024;2023-02-18T02:46:50;101678.88;;;10.03;100.00
58534;BME280;44109;52.398;7.024;2023-02-18T02:49:32;101683.06;;;10.09;100.00
58534;BME280;44109;52.398;7.024;2023-02-18T02:52:12;101676.09;;;10.03;100.00
58534;BME280;44109;52.398;7.024;2023-02-18T02:54:45;101675.53;;;10.22;100.00
58534;BME280;44109;52.398;7.024;2023-02-18T02:57:45;101670.25;;;10.04;100.00
58534;BME280;44109;52.398;7.024;2023-02-18T03:00:18;101679.94;;;10.10;100.00
58534;BME280;44109;52.398;7.024;2023-02-18T03:03:13;101673.59;;;10.10;100.00
58534;BME280;44109;52.398;7.024;2023-02-18T03:06:05;101678.06;;;10.02;100.00
58534;BME280;44109;52.398;7.024;2023-02-18T03:08:54;101655.09;;;10.14;100.00
58534;BME280;44109;52.398;7.024;2023-02-18T03:11:32;101631.31;;;10.01;100.00
58534;BME280;44109;52.398;7.024;2023-02-18T03:14:14;101645.28;;;10.16;100.00
58534;BME280;44109;52.398;7.024;2023-02-18T03:16:52;101641.72;;;10.04;100.00
58534;BME280;44109;52.398;7.024;2023-02-18T03:19:30;101635.91;;;10.21;100.00
58534;BME280;44109;52.398;7.024;2023-02-18T03:22:06;101622.03;;;10.21;100.00
58534;BME280;44109;52.398;7.024;2023-02-18T03:24:40;101612.59;;;9.98;100.00
58534;BME280;44109;52.398;7.024;2023-02-18T03:27:13;101620.66;;;10.03;100.00
58534;BME280;44109;52.398;7.024;2023-02-18T03:29:47;101619.75;;;10.11;100.00
58534;BME280;44109;52.398;7.024;2023-02-18T03:32:21;101619.53;;;10.04;100.00
58534;BME280;44109;52.398;7.024;2023-02-18T03:34:54;101619.75;;;9.99;100.00
58534;BME280;44109;52.398;7.024;2023-02-18T03:37:26;101603.59;;;10.13;100.00
58534;BME280;44109;52.398;7.024;2023-02-18T03:40:00;101597.25;;;10.25;100.00
58534;BME280;44109;52.398;7.024;2023-02-18T03:42:29;101597.56;;;10.11;100.00
58534;BME280;44109;52.398;7.024;2023-02-18T03:44:56;101598.13;;;10.16;100.00
58534;BME280;44109;52.398;7.024;2023-02-18T03:47:24;101585.31;;;10.12;100.00
58534;BME280;44109;52.398;7.024;2023-02-18T03:49:52;101581.19;;;10.06;100.00
58534;BME280;44109;52.398;7.024;2023-02-18T03:52:19;101578.41;;;10.18;100.00
58534;BME280;44109;52.398;7.024;2023-02-18T03:54:47;101574.91;;;10.21;100.00
58534;BME280;44109;52.398;7.024;2023-02-18T03:57:17;101578.16;;;9.99;100.00
58534;BME280;44109;52.398;7.024;2023-02-18T03:59:44;101573.91;;;10.26;100.00
58534;BME280;44109;52.398;7.024;2023-02-18T04:02:12;101541.00;;;10.00;100.00
58534;BME280;44109;52.398;7.024;2023-02-18T04:04:40;101560.47;;;10.40;100.00
58534;BME280;44109;52.398;7.024;2023-02-18T04:07:07;101548.81;;;10.22;100.00
58534;BME280;44109;52.398;7.024;2023-02-18T04:09:35;101546.53;;;10.00;100.00
58534;BME280;44109;52.398;7.024;2023-02-18T04:12:03;101539.56;;;10.30;100.00
58534;BME280;44109;52.398;7.024;2023-02-18T04:14:32;101524.69;;;9.98;100.00
58534;BME280;44109;52.398;7.024;2023-02-18T04:16:59;101525.06;;;9.97;100.00
58534;BME280;44109;52.398;7.024;2023-02-18T04:19:27;101529.44;;;10.10;100.00
58534;BME280;44109;52.398;7.024;2023-02-18T04:21:55;101520.63;;;10.20;100.00
58534;BME280;44109;52.398;7.024;2023-02-18T04:24:22;101522.22;;;10.21;100.00
58534;BME280;44109;52.398;7.024;2023-02-18T04:26:50;101508.84;;;10.11;100.00
58534;BME280;44109;52.398;7.024;2023-02-18T04:29:17;101523.19;;;10.13;100.00
58534;BME280;44109;52.398;7.024;2023-02-18T04:31:46;101527.81;;;10.09;100.00
58534;BME280;44109;52.398;7.024;2023-02-18T04:34:14;101523.19;;;10.25;100.00
58534;BME280;44109;52.398;7.024;2023-02-18T04:36:42;101516.47;;;10.26;100.00
58534;BME280;44109;52.398;7.024;2023-02-18T04:39:09;101512.91;;;10.26;100.00
58534;BME280;44109;52.398;7.024;2023-02-18T04:41:37;101512.28;;;10.45;100.00
58534;BME280;44109;52.398;7.024;2023-02-18T04:44:04;101509.97;;;10.47;100.00
58534;BME280;44109;52.398;7.024;2023-02-18T04:46:32;101508.63;;;10.28;100.00
58534;BME280;44109;52.398;7.024;2023-02-18T04:49:01;101507.44;;;10.41;100.00
58534;BME280;44109;52.398;7.024;2023-02-18T04:51:29;101501.00;;;10.25;100.00
58534;BME280;44109;52.398;7.024;2023-02-18T04:53:56;101497.84;;;10.39;100.00
58534;BME280;44109;52.398;7.024;2023-02-18T04:56:24;101478.34;;;10.23;100.00
58534;BME280;44109;52.398;7.024;2023-02-18T04:58:52;101472.00;;;10.23;100.00
58534;BME280;44109;52.398;7.024;2023-02-18T05:01:19;101479.41;;;10.06;100.00
58534;BME280;44109;52.398;7.024;2023-02-18T05:03:47;101493.53;;;10.01;100.00
58534;BME280;44109;52.398;7.024;2023-02-18T05:06:16;101470.28;;;10.18;100.00
58534;BME280;44109;52.398;7.024;2023-02-18T05:08:43;101476.75;;;10.10;100.00
58534;BME280;44109;52.398;7.024;2023-02-18T05:11:11;101466.22;;;10.15;100.00
58534;BME280;44109;52.398;7.024;2023-02-18T05:13:39;101455.25;;;10.19;100.00
58534;BME280;44109;52.398;7.024;2023-02-18T05:16:06;101464.00;;;10.21;100.00
58534;BME280;44109;52.398;7.024;2023-02-18T05:18:34;101453.81;;;10.37;100.00
58534;BME280;44109;52.398;7.024;2023-02-18T05:21:02;101438.09;;;10.41;100.00
58534;BME280;44109;52.398;7.024;2023-02-18T05:23:31;101418.28;;;10.27;100.00
58534;BME280;44109;52.398;7.024;2023-02-18T05:25:58;101406.78;;;10.41;100.00
58534;BME280;44109;52.398;7.024;2023-02-18T05:28:26;101424.22;;;10.41;100.00
58534;BME280;44109;52.398;7.024;2023-02-18T05:30:54;101421.19;;;10.47;100.00
58534;BME280;44109;52.398;7.024;2023-02-18T05:33:21;101414.16;;;10.49;100.00
58534;BME280;44109;52.398;7.024;2023-02-18T05:35:49;101414.94;;;10.50;100.00
58534;BME280;44109;52.398;7.024;2023-02-18T05:38:17;101403.66;;;10.43;100.00
58534;BME280;44109;52.398;7.024;2023-02-18T05:40:46;101416.31;;;10.56;100.00
58534;BME280;44109;52.398;7.024;2023-02-18T05:43:14;101406.47;;;10.30;100.00
58534;BME280;44109;52.398;7.024;2023-02-18T05:45:42;101394.25;;;10.47;100.00
58534;BME280;44109;52.398;7.024;2023-02-18T05:48:09;101389.13;;;10.33;100.00
58534;BME280;44109;52.398;7.024;2023-02-18T05:50:37;101384.97;;;10.55;100.00
58534;BME280;44109;52.398;7.024;2023-02-18T05:53:05;101379.38;;;10.39;100.00
58534;BME280;44109;52.398;7.024;2023-02-18T05:55:32;101383.28;;;10.51;100.00
58534;BME280;44109;52.398;7.024;2023-02-18T05:58:04;101374.97;;;10.66;100.00
58534;BME280;44109;52.398;7.024;2023-02-18T06:00:32;101363.06;;;10.66;100.00
58534;BME280;44109;52.398;7.024;2023-02-18T06:02:59;101344.44;;;10.51;100.00
58534;BME280;44109;52.398;7.024;2023-02-18T06:05:27;101357.78;;;10.61;100.00
58534;BME280;44109;52.398;7.024;2023-02-18T06:07:55;101366.31;;;10.40;100.00
58534;BME280;44109;52.398;7.024;2023-02-18T06:10:22;101359.38;;;10.62;100.00
58534;BME280;44109;52.398;7.024;2023-02-18T06:12:50;101368.72;;;10.70;100.00
58534;BME280;44109;52.398;7.024;2023-02-18T06:15:19;101347.31;;;10.54;100.00
58534;BME280;44109;52.398;7.024;2023-02-18T06:17:46;101362.25;;;10.50;100.00
58534;BME280;44109;52.398;7.024;2023-02-18T06:20:14;101355.81;;;10.61;100.00
58534;BME280;44109;52.398;7.024;2023-02-18T06:22:42;101363.16;;;10.54;100.00
58534;BME280;44109;52.398;7.024;2023-02-18T06:25:09;101364.03;;;10.58;100.00
58534;BME280;44109;52.398;7.024;2023-02-18T06:27:37;101356.34;;;10.67;100.00
58534;BME280;44109;52.398;7.024;2023-02-18T06:30:05;101362.16;;;10.62;100.00
58534;BME280;44109;52.398;7.024;2023-02-18T06:32:35;101357.25;;;10.55;100.00
58534;BME280;44109;52.398;7.024;2023-02-18T06:35:03;101352.22;;;10.61;100.00
58534;BME280;44109;52.398;7.024;2023-02-18T06:37:31;101351.59;;;10.52;100.00
58534;BME280;44109;52.398;7.024;2023-02-18T06:39:59;101327.78;;;10.51;100.00
58534;BME280;44109;52.398;7.024;2023-02-18T06:42:26;101360.81;;;10.56;100.00
58534;BME280;44109;52.398;7.024;2023-02-18T06:44:54;101359.66;;;10.57;100.00
58534;BME280;44109;52.398;7.024;2023-02-18T06:47:22;101351.84;;;10.62;100.00
58534;BME280;44109;52.398;7.024;2023-02-18T06:49:51;101352.59;;;10.59;100.00
58534;BME280;44109;52.398;7.024;2023-02-18T06:52:18;101359.66;;;10.57;100.00
58534;BME280;44109;52.398;7.024;2023-02-18T06:54:46;101344.53;;;10.54;100.00
58534;BME280;44109;52.398;7.024;2023-02-18T06:57:13;101352.94;;;10.58;100.00
58534;BME280;44109;52.398;7.024;2023-02-18T06:59:41;101338.69;;;10.44;100.00
58534;BME280;44109;52.398;7.024;2023-02-18T07:02:09;101331.81;;;10.37;100.00
58534;BME280;44109;52.398;7.024;2023-02-18T07:04:39;101333.50;;;10.58;100.00
58534;BME280;44109;52.398;7.024;2023-02-18T07:07:07;101332.88;;;10.49;100.00
58534;BME280;44109;52.398;7.024;2023-02-18T07:09:35;101334.31;;;10.43;100.00
58534;BME280;44109;52.398;7.024;2023-02-18T07:12:03;101294.41;;;10.31;100.00
58534;BME280;44109;52.398;7.024;2023-02-18T07:14:31;101331.53;;;10.43;100.00
58534;BME280;44109;52.398;7.024;2023-02-18T07:16:59;101334.94;;;10.52;100.00
58534;BME280;44109;52.398;7.024;2023-02-18T07:19:26;101331.28;;;10.48;100.00
58534;BME280;44109;52.398;7.024;2023-02-18T07:21:54;101332.53;;;10.50;100.00
58534;BME280;44109;52.398;7.024;2023-02-18T07:24:24;101334.03;;;10.48;100.00
58534;BME280;44109;52.398;7.024;2023-02-18T07:26:51;101334.56;;;10.37;100.00
58534;BME280;44109;52.398;7.024;2023-02-18T07:29:19;101324.72;;;10.40;100.00
58534;BME280;44109;52.398;7.024;2023-02-18T07:31:47;101334.69;;;10.41;100.00
58534;BME280;44109;52.398;7.024;2023-02-18T07:34:14;101296.97;;;10.24;100.00
58534;BME280;44109;52.398;7.024;2023-02-18T07:36:42;101326.78;;;10.43;100.00
58534;BME280;44109;52.398;7.024;2023-02-18T07:39:09;101318.09;;;10.29;100.00
58534;BME280;44109;52.398;7.024;2023-02-18T07:41:39;101317.72;;;10.30;100.00
58534;BME280;44109;52.398;7.024;2023-02-18T07:44:06;101334.56;;;10.37;100.00
58534;BME280;44109;52.398;7.024;2023-02-18T07:46:34;101338.97;;;10.38;100.00
58534;BME280;44109;52.398;7.024;2023-02-18T07:49:05;101327.31;;;10.33;100.00
58534;BME280;44109;52.398;7.024;2023-02-18T07:51:33;101331.34;;;10.35;100.00
58534;BME280;44109;52.398;7.024;2023-02-18T07:54:03;101346.38;;;10.34;100.00
58534;BME280;44109;52.398;7.024;2023-02-18T07:56:30;101330.34;;;10.28;100.00
58534;BME280;44109;52.398;7.024;2023-02-18T07:58:59;101333.22;;;10.31;100.00
58534;BME280;44109;52.398;7.024;2023-02-18T08:01:27;101338.78;;;10.31;100.00
58534;BME280;44109;52.398;7.024;2023-02-18T08:03:55;101352.66;;;10.31;100.00
58534;BME280;44109;52.398;7.024;2023-02-18T08:06:27;101352.66;;;10.31;100.00
58534;BME280;44109;52.398;7.024;2023-02-18T08:08:57;101341.56;;;10.31;100.00
58534;BME280;44109;52.398;7.024;2023-02-18T08:11:25;101340.38;;;10.32;100.00
58534;BME280;44109;52.398;7.024;2023-02-18T08:13:53;101338.59;;;10.40;100.00
58534;BME280;44109;52.398;7.024;2023-02-18T08:16:22;101335.28;;;10.34;100.00
58534;BME280;44109;52.398;7.024;2023-02-18T08:18:50;101330.63;;;10.38;100.00
58534;BME280;44109;52.398;7.024;2023-02-18T08:21:20;101338.09;;;10.50;100.00
58534;BME280;44109;52.398;7.024;2023-02-18T08:23:49;101327.59;;;10.44;100.00
58534;BME280;44109;52.398;7.024;2023-02-18T08:26:18;101324.28;;;10.38;100.00
58534;BME280;44109;52.398;7.024;2023-02-18T08:28:47;101327.69;;;10.31;100.00
58534;BME280;44109;52.398;7.024;2023-02-18T08:31:16;101279.41;;;10.04;100.00
58534;BME280;44109;52.398;7.024;2023-02-18T08:33:47;101335.66;;;10.49;100.00
58534;BME280;44109;52.398;7.024;2023-02-18T08:36:16;101333.31;;;10.35;100.00
58534;BME280;44109;52.398;7.024;2023-02-18T08:38:43;101323.69;;;10.45;100.00
58534;BME280;44109;52.398;7.024;2023-02-18T08:41:11;101321.50;;;10.38;100.00
58534;BME280;44109;52.398;7.024;2023-02-18T08:43:40;101321.72;;;10.45;100.00
58534;BME280;44109;52.398;7.024;2023-02-18T08:46:09;101330.47;;;10.47;100.00
58534;BME280;44109;52.398;7.024;2023-02-18T08:48:37;101344.06;;;10.36;100.00
58534;BME280;44109;52.398;7.024;2023-02-18T08:51:17;101305.53;;;10.19;100.00
58534;BME280;44109;52.398;7.024;2023-02-18T08:53:46;101330.19;;;10.36;100.00
58534;BME280;44109;52.398;7.024;2023-02-18T08:56:15;101322.84;;;10.28;100.00
58534;BME280;44109;52.398;7.024;2023-02-18T08:58:43;101305.94;;;10.33;100.00
58534;BME280;44109;52.398;7.024;2023-02-18T09:01:12;101323.84;;;10.36;100.00
58534;BME280;44109;52.398;7.024;2023-02-18T09:03:42;101324.22;;;10.50;100.00
58534;BME280;44109;52.398;7.024;2023-02-18T09:06:10;101325.66;;;10.60;100.00
58534;BME280;44109;52.398;7.024;2023-02-18T09:08:39;101312.81;;;10.39;100.00
58534;BME280;44109;52.398;7.024;2023-02-18T09:11:06;101323.91;;;10.39;100.00
58534;BME280;44109;52.398;7.024;2023-02-18T09:13:35;101316.34;;;10.36;100.00
58534;BME280;44109;52.398;7.024;2023-02-18T09:16:05;101321.06;;;10.36;100.00
58534;BME280;44109;52.398;7.024;2023-02-18T09:18:34;101318.19;;;10.32;100.00
58534;BME280;44109;52.398;7.024;2023-02-18T09:21:03;101323.75;;;10.32;100.00
58534;BME280;44109;52.398;7.024;2023-02-18T09:23:33;101320.63;;;10.22;100.00
58534;BME280;44109;52.398;7.024;2023-02-18T09:26:05;101324.84;;;10.15;100.00
58534;BME280;44109;52.398;7.024;2023-02-18T09:28:33;101311.28;;;10.26;100.00
58534;BME280;44109;52.398;7.024;2023-02-18T09:31:05;101318.22;;;10.20;100.00
58534;BME280;44109;52.398;7.024;2023-02-18T09:33:35;101325.00;;;10.35;100.00
58534;BME280;44109;52.398;7.024;2023-02-18T09:36:03;101322.22;;;10.35;100.00
58534;BME280;44109;52.398;7.024;2023-02-18T09:38:32;101318.22;;;10.20;100.00
58534;BME280;44109;52.398;7.024;2023-02-18T09:41:02;101321.56;;;10.26;100.00
58534;BME280;44109;52.398;7.024;2023-02-18T09:43:37;101329.31;;;10.20;100.00
58534;BME280;44109;52.398;7.024;2023-02-18T09:46:11;101334.50;;;10.22;100.00
58534;BME280;44109;52.398;7.024;2023-02-18T09:48:45;101333.13;;;10.00;100.00
58534;BME280;44109;52.398;7.024;2023-02-18T09:51:15;101333.31;;;10.07;100.00
58534;BME280;44109;52.398;7.024;2023-02-18T09:53:44;101334.72;;;10.01;100.00
58534;BME280;44109;52.398;7.024;2023-02-18T09:56:15;101340.47;;;10.08;100.00
58534;BME280;44109;52.398;7.024;2023-02-18T09:58:47;101335.09;;;9.99;100.00
58534;BME280;44109;52.398;7.024;2023-02-18T10:01:20;101346.72;;;10.05;100.00
58534;BME280;44109;52.398;7.024;2023-02-18T10:03:57;101333.84;;;10.12;100.00
58534;BME280;44109;52.398;7.024;2023-02-18T10:06:30;101350.56;;;10.00;100.00
58534;BME280;44109;52.398;7.024;2023-02-18T10:09:02;101319.19;;;9.84;100.00
58534;BME280;44109;52.398;7.024;2023-02-18T10:11:38;101353.59;;;9.95;100.00
58534;BME280;44109;52.398;7.024;2023-02-18T10:14:10;101347.13;;;9.91;100.00
58534;BME280;44109;52.398;7.024;2023-02-18T10:16:40;101349.78;;;9.87;100.00
58534;BME280;44109;52.398;7.024;2023-02-18T10:19:20;101365.09;;;9.69;100.00
58534;BME280;44109;52.398;7.024;2023-02-18T10:21:52;101376.16;;;9.69;100.00
58534;BME280;44109;52.398;7.024;2023-02-18T10:24:28;101374.41;;;9.77;100.00
58534;BME280;44109;52.398;7.024;2023-02-18T10:27:03;101353.00;;;9.89;100.00
58534;BME280;44109;52.398;7.024;2023-02-18T10:29:34;101365.06;;;9.81;100.00
58534;BME280;44109;52.398;7.024;2023-02-18T10:32:06;101373.38;;;9.81;100.00
58534;BME280;44109;52.398;7.024;2023-02-18T10:34:46;101370.91;;;9.92;100.00
58534;BME280;44109;52.398;7.024;2023-02-18T10:37:29;101365.88;;;9.70;100.00
58534;BME280;44109;52.398;7.024;2023-02-18T10:40:14;101385.72;;;9.72;100.00
58534;BME280;44109;52.398;7.024;2023-02-18T10:43:00;101386.78;;;9.67;100.00
58534;BME280;44109;52.398;7.024;2023-02-18T10:45:41;101387.13;;;9.65;100.00
58534;BME280;44109;52.398;7.024;2023-02-18T10:48:45;101383.31;;;9.58;100.00
58534;BME280;44109;52.398;7.024;2023-02-18T10:51:30;101392.44;;;9.71;100.00
58534;BME280;44109;52.398;7.024;2023-02-18T10:54:01;101377.78;;;9.70;100.00
58534;BME280;44109;52.398;7.024;2023-02-18T10:56:38;101387.69;;;9.71;100.00
58534;BME280;44109;52.398;7.024;2023-02-18T10:59:12;101383.91;;;9.63;100.00
58534;BME280;44109;52.398;7.024;2023-02-18T11:01:44;101387.44;;;9.76;100.00
58534;BME280;44109;52.398;7.024;2023-02-18T11:04:20;101385.03;;;9.75;100.00
58534;BME280;44109;52.398;7.024;2023-02-18T11:06:54;101390.50;;;9.59;100.00
58534;BME280;44109;52.398;7.024;2023-02-18T11:09:39;101375.84;;;9.58;100.00
58534;BME280;44109;52.398;7.024;2023-02-18T11:12:14;101378.69;;;9.74;100.00
58534;BME280;44109;52.398;7.024;2023-02-18T11:14:49;101363.66;;;9.75;100.00
58534;BME280;44109;52.398;7.024;2023-02-18T11:17:33;101370.50;;;9.65;100.00
58534;BME280;44109;52.398;7.024;2023-02-18T11:20:24;101377.28;;;9.80;100.00
58534;BME280;44109;52.398;7.024;2023-02-18T11:23:14;101373.94;;;9.87;100.00
58534;BME280;44109;52.398;7.024;2023-02-18T11:25:56;101376.47;;;9.80;100.00
58534;BME280;44109;52.398;7.024;2023-02-18T11:28:36;101367.75;;;10.06;100.00
58534;BME280;44109;52.398;7.024;2023-02-18T11:31:19;101359.06;;;10.07;100.00
58534;BME280;44109;52.398;7.024;2023-02-18T11:33:51;101346.97;;;10.00;100.00
58534;BME280;44109;52.398;7.024;2023-02-18T11:36:23;101368.53;;;10.06;100.00
58534;BME280;44109;52.398;7.024;2023-02-18T11:38:55;101374.84;;;10.19;100.00
58534;BME280;44109;52.398;7.024;2023-02-18T11:41:30;101358.31;;;10.23;100.00
58534;BME280;44109;52.398;7.024;2023-02-18T11:44:04;101356.88;;;10.13;100.00
58534;BME280;44109;52.398;7.024;2023-02-18T11:46:35;101362.03;;;10.27;100.00
58534;BME280;44109;52.398;7.024;2023-02-18T11:49:20;101329.19;;;10.01;100.00
58534;BME280;44109;52.398;7.024;2023-02-18T11:51:50;101372.88;;;10.20;100.00
58534;BME280;44109;52.398;7.024;2023-02-18T11:54:24;101359.81;;;10.20;100.00
58534;BME280;44109;52.398;7.024;2023-02-18T11:56:57;101369.06;;;10.24;100.00
58534;BME280;44109;52.398;7.024;2023-02-18T11:59:29;101372.22;;;10.10;100.00
58534;BME280;44109;52.398;7.024;2023-02-18T12:02:23;101382.25;;;10.15;100.00
58534;BME280;44109;52.398;7.024;2023-02-18T12:05:00;101384.59;;;10.13;100.00
58534;BME280;44109;52.398;7.024;2023-02-18T12:07:40;101381.34;;;10.11;100.00
58534;BME280;44109;52.398;7.024;2023-02-18T12:10:13;101384.53;;;10.25;100.00
58534;BME280;44109;52.398;7.024;2023-02-18T12:12:48;101370.47;;;10.18;100.00
58534;BME280;44109;52.398;7.024;2023-02-18T12:15:25;101380.38;;;10.19;100.00
58534;BME280;44109;52.398;7.024;2023-02-18T12:18:16;101386.25;;;10.30;100.00
58534;BME280;44109;52.398;7.024;2023-02-18T12:21:01;101372.75;;;10.28;100.00
58534;BME280;44109;52.398;7.024;2023-02-18T12:23:50;101376.44;;;10.32;100.00
58534;BME280;44109;52.398;7.024;2023-02-18T12:26:28;101376.44;;;10.20;100.00
58534;BME280;44109;52.398;7.024;2023-02-18T12:29:16;101376.44;;;10.20;100.00
58534;BME280;44109;52.398;7.024;2023-02-18T12:32:21;101372.28;;;10.26;100.00
58534;BME280;44109;52.398;7.024;2023-02-18T12:35:14;101378.66;;;10.27;100.00
58534;BME280;44109;52.398;7.024;2023-02-18T12:38:15;101382.88;;;10.36;100.00
58534;BME280;44109;52.398;7.024;2023-02-18T12:44:16;101379.53;;;10.75;100.00
58534;BME280;44109;52.398;7.024;2023-02-18T12:47:06;101376.31;;;10.88;100.00
58534;BME280;44109;52.398;7.024;2023-02-18T12:50:02;101376.41;;;10.76;100.00
58534;BME280;44109;52.398;7.024;2023-02-18T12:52:52;101379.72;;;10.98;100.00
58534;BME280;44109;52.398;7.024;2023-02-18T12:55:42;101389.22;;;10.97;100.00
58534;BME280;44109;52.398;7.024;2023-02-18T12:58:25;101383.66;;;10.97;100.00
58534;BME280;44109;52.398;7.024;2023-02-18T13:01:13;101380.81;;;10.93;100.00
58534;BME280;44109;52.398;7.024;2023-02-18T13:04:03;101379.28;;;10.96;100.00
58534;BME280;44109;52.398;7.024;2023-02-18T13:07:16;101387.41;;;11.20;100.00
58534;BME280;44109;52.398;7.024;2023-02-18T13:10:17;101369.16;;;10.72;100.00
58534;BME280;44109;52.398;7.024;2023-02-18T13:13:09;101379.72;;;10.98;100.00
58534;BME280;44109;52.398;7.024;2023-02-18T13:15:42;101390.03;;;10.97;100.00
58534;BME280;44109;52.398;7.024;2023-02-18T13:18:19;101381.88;;;10.88;100.00
58534;BME280;44109;52.398;7.024;2023-02-18T13:20:53;101391.47;;;10.91;100.00